createdAt,value
2018-08-24T00:01:32.726Z,22.40
2018-08-24T00:04:09.139Z,23.40
2018-08-24T00:06:41.793Z,20.40
2018-08-24T00:09:14.969Z,24.40
2018-08-24T00:11:47.338Z,23.80
2018-08-24T00:14:19.055Z,24.60
2018-08-24T00:16:50.982Z,21.80
2018-08-24T00:19:23.068Z,19.80
2018-08-24T00:21:54.868Z,24.00
2018-08-24T00:24:26.578Z,22.20
2018-08-24T00:26:58.402Z,18.60
2018-08-24T00:29:29.941Z,22.20
2018-08-24T00:32:01.715Z,21.80
2018-08-24T00:34:33.671Z,21.80
2018-08-24T00:37:05.245Z,21.80
2018-08-24T00:39:37.483Z,23.00
2018-08-24T00:42:09.237Z,23.20
2018-08-24T00:44:41.566Z,20.20
2018-08-24T00:47:13.431Z,19.80
2018-08-24T00:49:45.444Z,23.00
2018-08-24T00:52:17.082Z,20.20
2018-08-24T00:54:48.978Z,22.20
2018-08-24T00:57:20.645Z,19.40
2018-08-24T00:59:52.085Z,23.60
2018-08-24T01:02:24.336Z,18.60
2018-08-24T01:04:56.288Z,22.40
2018-08-24T01:07:28.010Z,22.20
2018-08-24T01:10:04.365Z,20.20
2018-08-24T01:12:36.446Z,20.60
2018-08-24T01:15:08.706Z,21.00
2018-08-24T01:17:45.167Z,22.80
2018-08-24T01:20:18.616Z,23.80
2018-08-24T01:22:51.698Z,18.40
2018-08-24T01:25:23.643Z,21.80
2018-08-24T01:27:55.932Z,22.80
2018-08-24T01:30:28.823Z,23.40
2018-08-24T01:33:01.474Z,21.20
2018-08-24T01:35:33.203Z,22.00
2018-08-24T01:39:07.538Z,24.20
2018-08-24T01:41:39.597Z,22.00
2018-08-24T01:44:11.571Z,21.40
2018-08-24T01:46:44.051Z,21.60
2018-08-24T01:49:16.207Z,21.00
2018-08-24T01:51:48.158Z,19.60
2018-08-24T01:54:19.901Z,21.00
2018-08-24T01:56:52.163Z,22.80
2018-08-24T01:59:24.268Z,22.00
2018-08-24T02:01:56.017Z,20.80
2018-08-24T02:04:28.239Z,24.00
2018-08-24T02:06:59.962Z,22.40
2018-08-24T02:09:31.516Z,23.60
2018-08-24T02:12:04.032Z,21.20
2018-08-24T02:14:41.430Z,21.60
2018-08-24T02:17:18.063Z,24.60
2018-08-24T02:19:54.641Z,22.40
2018-08-24T02:22:28.187Z,22.80
2018-08-24T02:24:59.999Z,23.80
2018-08-24T02:27:32.671Z,26.00
2018-08-24T02:30:04.855Z,25.80
2018-08-24T02:32:37.269Z,24.00
2018-08-24T02:35:09.673Z,24.00
2018-08-24T02:37:41.620Z,20.40
2018-08-24T02:40:13.345Z,17.80
2018-08-24T02:42:46.069Z,23.00
2018-08-24T02:45:18.383Z,23.00
2018-08-24T02:47:50.581Z,21.80
2018-08-24T02:50:22.617Z,26.20
2018-08-24T02:52:54.654Z,24.60
2018-08-24T02:55:26.894Z,29.40
2018-08-24T02:57:59.025Z,26.20
2018-08-24T03:00:31.322Z,27.60
2018-08-24T03:03:05.704Z,28.40
2018-08-24T03:05:38.222Z,26.40
2018-08-24T03:08:10.344Z,30.40
2018-08-24T03:10:42.772Z,29.60
2018-08-24T03:13:14.631Z,33.80
2018-08-24T03:15:46.781Z,33.80
2018-08-24T03:18:18.999Z,33.60
2018-08-24T03:20:51.097Z,33.60
2018-08-24T03:23:23.048Z,33.00
2018-08-24T03:25:55.558Z,34.00
2018-08-24T03:28:28.301Z,34.40
2018-08-24T03:31:02.003Z,32.80
2018-08-24T03:33:34.104Z,36.80
2018-08-24T03:36:06.682Z,36.40
2018-08-24T03:38:39.612Z,36.20
2018-08-24T03:41:11.637Z,39.00
2018-08-24T03:43:44.530Z,36.60
2018-08-24T03:46:16.673Z,36.60
2018-08-24T03:48:49.296Z,37.20
2018-08-24T03:51:21.427Z,37.20
2018-08-24T03:53:53.861Z,36.00
2018-08-24T03:56:25.907Z,35.00
2018-08-24T03:58:58.710Z,36.20
2018-08-24T04:01:31.251Z,37.20
2018-08-24T04:04:04.054Z,35.80
2018-08-24T04:06:36.056Z,36.00
2018-08-24T04:09:08.540Z,38.00
2018-08-24T04:11:40.093Z,35.80
2018-08-24T04:14:12.814Z,35.40
2018-08-24T04:16:49.309Z,37.80
2018-08-24T04:19:29.657Z,36.20
2018-08-24T04:22:02.420Z,36.00
2018-08-24T04:24:34.340Z,36.60
2018-08-24T04:27:06.314Z,38.00
2018-08-24T04:29:38.031Z,36.00
2018-08-24T04:32:10.475Z,35.40
2018-08-24T04:34:43.330Z,36.40
2018-08-24T04:37:15.940Z,38.00
2018-08-24T04:39:48.360Z,37.40
2018-08-24T04:42:21.003Z,37.60
2018-08-24T04:44:52.891Z,33.20
2018-08-24T04:47:25.109Z,35.20
2018-08-24T04:49:57.829Z,37.00
2018-08-24T04:52:29.961Z,34.00
2018-08-24T04:55:02.320Z,36.00
2018-08-24T04:57:34.964Z,33.40
2018-08-24T05:00:07.974Z,37.20
2018-08-24T05:02:40.448Z,37.00
2018-08-24T05:05:13.628Z,36.20
2018-08-24T05:07:47.590Z,36.80
2018-08-24T05:10:20.024Z,36.20
2018-08-24T05:12:51.986Z,36.40
2018-08-24T05:15:24.785Z,38.20
2018-08-24T05:17:58.039Z,36.00
2018-08-24T05:20:30.341Z,35.60
2018-08-24T05:23:02.562Z,34.60
2018-08-24T05:25:35.138Z,35.00
2018-08-24T05:28:08.289Z,37.40
2018-08-24T05:30:40.512Z,37.00
2018-08-24T05:33:13.234Z,39.60
2018-08-24T05:35:45.625Z,36.20
2018-08-24T05:38:19.261Z,37.00
2018-08-24T05:40:51.580Z,35.80
2018-08-24T05:43:23.822Z,34.00
2018-08-24T05:45:56.021Z,36.40
2018-08-24T05:48:28.656Z,34.80
2018-08-24T05:51:00.916Z,34.60
2018-08-24T05:53:33.165Z,34.00
2018-08-24T05:56:05.395Z,36.60
2018-08-24T05:58:37.636Z,35.60
2018-08-24T06:01:10.024Z,35.60
2018-08-24T06:03:42.340Z,36.40
2018-08-24T06:06:14.351Z,32.40
2018-08-24T06:08:46.528Z,33.60
2018-08-24T06:11:18.602Z,34.80
2018-08-24T06:13:50.451Z,34.20
2018-08-24T06:16:22.302Z,33.60
2018-08-24T06:18:54.234Z,31.80
2018-08-24T06:21:26.427Z,37.60
2018-08-24T06:23:58.314Z,36.60
2018-08-24T06:26:30.321Z,36.60
2018-08-24T06:29:02.522Z,34.00
2018-08-24T06:31:34.480Z,36.80
2018-08-24T06:34:07.391Z,37.00
2018-08-24T06:36:39.707Z,36.00
2018-08-24T06:39:13.651Z,35.80
2018-08-24T06:41:46.541Z,37.00
2018-08-24T06:44:18.527Z,35.20
2018-08-24T06:46:50.416Z,35.20
2018-08-24T06:49:22.317Z,34.60
2018-08-24T06:51:54.985Z,35.40
2018-08-24T06:54:26.609Z,38.80
2018-08-24T06:56:58.728Z,32.40
2018-08-24T06:59:30.662Z,32.40
2018-08-24T07:02:04.586Z,35.00
2018-08-24T07:04:36.683Z,33.40
2018-08-24T07:07:11.100Z,34.00
2018-08-24T07:09:43.206Z,35.20
2018-08-24T07:12:16.354Z,34.20
2018-08-24T07:14:49.526Z,32.20
2018-08-24T07:17:28.219Z,30.60
2018-08-24T07:20:00.006Z,31.40
2018-08-24T07:22:31.919Z,31.00
2018-08-24T07:25:03.889Z,31.00
2018-08-24T07:27:35.662Z,34.00
2018-08-24T07:30:07.402Z,33.00
2018-08-24T07:32:39.252Z,33.20
2018-08-24T07:35:11.517Z,32.20
2018-08-24T07:37:44.212Z,33.40
2018-08-24T07:40:16.198Z,33.80
2018-08-24T07:42:48.702Z,35.00
2018-08-24T07:45:21.228Z,36.00
2018-08-24T07:47:53.320Z,35.20
2018-08-24T07:50:25.055Z,33.40
2018-08-24T07:52:57.151Z,33.80
2018-08-24T07:55:30.054Z,36.00
2018-08-24T07:58:02.333Z,33.20
2018-08-24T08:00:33.802Z,33.40
2018-08-24T08:03:06.255Z,33.80
2018-08-24T08:05:38.395Z,31.20
2018-08-24T08:08:10.306Z,32.60
2018-08-24T08:10:42.841Z,33.00
2018-08-24T08:13:14.846Z,31.20
2018-08-24T08:15:46.944Z,32.80
2018-08-24T08:18:18.889Z,34.20
2018-08-24T08:20:50.790Z,32.80
2018-08-24T08:23:23.041Z,31.80
2018-08-24T08:25:54.893Z,33.00
2018-08-24T08:28:26.753Z,34.20
2018-08-24T08:30:58.423Z,31.20
2018-08-24T08:33:30.261Z,32.00
2018-08-24T08:36:01.858Z,30.80
2018-08-24T08:38:33.713Z,31.40
2018-08-24T08:41:05.597Z,32.80
2018-08-24T08:43:37.247Z,30.20
2018-08-24T08:46:09.113Z,30.60
2018-08-24T08:48:40.858Z,30.20
2018-08-24T08:51:12.844Z,25.20
2018-08-24T08:53:44.684Z,31.80
2018-08-24T08:56:16.339Z,30.20
2018-08-24T08:58:48.385Z,31.00
2018-08-24T09:01:20.788Z,25.20
2018-08-24T09:03:52.624Z,30.60
2018-08-24T09:06:24.720Z,28.80
2018-08-24T09:08:56.715Z,30.80
2018-08-24T09:11:28.644Z,29.60
2018-08-24T09:14:00.294Z,31.00
2018-08-24T09:16:31.888Z,30.20
2018-08-24T09:19:08.314Z,27.00
2018-08-24T09:21:45.092Z,31.00
2018-08-24T09:24:21.679Z,31.20
2018-08-24T09:27:57.817Z,29.60
2018-08-24T09:30:33.712Z,28.80
2018-08-24T09:33:05.315Z,30.40
2018-08-24T09:35:37.246Z,30.80
2018-08-24T09:38:09.074Z,30.00
2018-08-24T09:40:45.407Z,30.40
2018-08-24T09:43:22.394Z,28.20
2018-08-24T09:45:57.015Z,28.60
2018-08-24T09:48:31.771Z,28.00
2018-08-24T09:51:08.392Z,29.80
2018-08-24T09:53:44.813Z,28.60
2018-08-24T09:56:17.245Z,25.40
2018-08-24T09:58:49.080Z,30.60
2018-08-24T10:01:26.351Z,29.60
2018-08-24T10:04:02.762Z,25.60
2018-08-24T10:06:39.923Z,23.60
2018-08-24T10:09:15.167Z,26.40
2018-08-24T10:11:46.821Z,31.20
2018-08-24T10:14:18.721Z,27.00
2018-08-24T10:16:50.466Z,28.60
2018-08-24T10:19:22.330Z,29.00
2018-08-24T10:21:54.135Z,31.00
2018-08-24T10:24:25.810Z,29.60
2018-08-24T10:26:57.842Z,27.80
2018-08-24T10:29:29.388Z,22.80
2018-08-24T10:32:02.062Z,25.60
2018-08-24T10:34:34.124Z,30.80
2018-08-24T10:37:06.608Z,26.20
2018-08-24T10:39:38.654Z,24.80
2018-08-24T10:42:10.420Z,29.00
2018-08-24T10:44:42.737Z,28.20
2018-08-24T10:47:15.351Z,29.20
2018-08-24T10:49:47.296Z,33.00
2018-08-24T10:52:18.925Z,30.00
2018-08-24T10:54:50.813Z,29.40
2018-08-24T10:57:22.606Z,30.40
2018-08-24T10:59:54.323Z,29.80
2018-08-24T11:02:26.601Z,25.00
2018-08-24T11:04:58.467Z,25.60
2018-08-24T11:07:30.375Z,30.40
2018-08-24T11:10:02.630Z,30.40
2018-08-24T11:12:34.550Z,32.80
2018-08-24T11:15:06.532Z,29.60
2018-08-24T11:18:10.806Z,27.60
2018-08-24T11:20:43.072Z,33.00
2018-08-24T11:23:14.770Z,29.00
2018-08-24T11:25:46.609Z,30.60
2018-08-24T11:28:18.714Z,26.60
2018-08-24T11:30:50.439Z,27.40
2018-08-24T11:33:22.128Z,25.20
2018-08-24T11:35:53.988Z,24.60
2018-08-24T11:38:26.156Z,24.80
2018-08-24T11:40:58.280Z,24.20
2018-08-24T11:43:30.007Z,25.40
2018-08-24T11:46:01.486Z,22.60
2018-08-24T11:48:33.323Z,22.60
2018-08-24T11:51:05.031Z,20.20
2018-08-24T11:53:36.936Z,19.60
2018-08-24T11:56:08.458Z,19.20
2018-08-24T11:58:40.576Z,23.60
2018-08-24T12:01:12.397Z,22.80
2018-08-24T12:03:44.680Z,24.00
2018-08-24T12:06:16.639Z,23.20
2018-08-24T12:08:50.468Z,23.00
2018-08-24T12:11:22.248Z,26.60
2018-08-24T12:13:54.391Z,27.20
2018-08-24T12:16:26.329Z,23.80
2018-08-24T12:18:58.207Z,30.20
2018-08-24T12:21:30.040Z,30.00
2018-08-24T12:24:02.542Z,23.80
2018-08-24T12:26:33.966Z,27.60
2018-08-24T12:29:06.305Z,27.80
2018-08-24T12:31:38.186Z,24.80
2018-08-24T12:34:10.345Z,21.00
2018-08-24T12:36:42.183Z,24.80
2018-08-24T12:39:14.774Z,29.20
2018-08-24T12:41:46.467Z,21.80
2018-08-24T12:44:19.046Z,25.80
2018-08-24T12:46:54.676Z,27.00
2018-08-24T12:49:26.762Z,21.20
2018-08-24T12:51:58.643Z,26.20
2018-08-24T12:54:30.473Z,27.40
2018-08-24T12:57:02.617Z,97.40
2018-08-24T12:59:35.239Z,68.20
2018-08-24T13:02:07.809Z,66.80
2018-08-24T13:04:39.745Z,53.40
2018-08-24T13:07:11.199Z,45.60
2018-08-24T13:09:44.310Z,51.40
2018-08-24T13:12:16.060Z,42.80
2018-08-24T13:14:47.706Z,34.60
2018-08-24T13:17:19.480Z,26.40
2018-08-24T13:19:51.186Z,27.60
2018-08-24T13:22:22.801Z,33.60
2018-08-24T13:24:55.245Z,44.00
2018-08-24T13:27:27.280Z,49.80
2018-08-24T13:29:59.229Z,45.20
2018-08-24T13:32:31.155Z,43.40
2018-08-24T13:35:02.727Z,36.60
2018-08-24T13:37:34.860Z,34.20
2018-08-24T13:40:06.794Z,33.00
2018-08-24T13:42:39.197Z,31.40
2018-08-24T13:45:11.432Z,31.20
2018-08-24T13:47:43.309Z,28.80
2018-08-24T13:50:15.184Z,29.80
2018-08-24T13:52:47.267Z,31.00
2018-08-24T13:55:19.204Z,33.60
2018-08-24T13:57:51.047Z,30.40
2018-08-24T14:00:24.051Z,31.80
2018-08-24T14:02:56.011Z,34.00
2018-08-24T14:05:28.839Z,31.60
2018-08-24T14:08:00.306Z,33.20
2018-08-24T14:10:33.736Z,34.60
2018-08-24T14:13:05.577Z,33.60
2018-08-24T14:15:36.982Z,33.20
2018-08-24T14:18:09.237Z,34.80
2018-08-24T14:20:40.785Z,32.80
2018-08-24T14:23:12.289Z,34.80
2018-08-24T14:25:44.559Z,36.00
2018-08-24T14:28:16.642Z,37.00
2018-08-24T14:30:48.438Z,31.60
2018-08-24T14:33:20.324Z,34.00
2018-08-24T14:35:52.433Z,34.20
2018-08-24T14:38:24.294Z,33.40
2018-08-24T14:40:56.249Z,31.00
2018-08-24T14:43:28.265Z,32.80
2018-08-24T14:46:00.439Z,34.00
2018-08-24T14:48:31.854Z,33.20
2018-08-24T14:51:03.803Z,35.60
2018-08-24T14:53:35.279Z,34.80
2018-08-24T14:56:07.664Z,32.40
2018-08-24T14:58:39.956Z,29.40
2018-08-24T15:01:11.964Z,33.00
2018-08-24T15:03:43.345Z,33.00
2018-08-24T15:06:15.276Z,32.60
2018-08-24T15:08:46.968Z,32.40
2018-08-24T15:11:20.176Z,34.20
2018-08-24T15:13:51.594Z,34.00
2018-08-24T15:16:23.641Z,34.00
2018-08-24T15:18:55.702Z,32.20
2018-08-24T15:21:28.726Z,33.20
2018-08-24T15:24:01.633Z,33.60
2018-08-24T15:26:33.681Z,34.20
2018-08-24T15:29:05.354Z,29.20
2018-08-24T15:31:38.143Z,32.20
2018-08-24T15:34:10.602Z,33.60
2018-08-24T15:36:42.477Z,32.40
2018-08-24T15:39:14.682Z,35.20
2018-08-24T15:41:46.790Z,30.40
2018-08-24T15:44:18.420Z,29.80
2018-08-24T15:46:50.474Z,30.80
2018-08-24T15:49:22.617Z,32.80
2018-08-24T15:51:54.814Z,32.20
2018-08-24T15:54:28.583Z,31.60
2018-08-24T15:57:00.611Z,30.40
2018-08-24T15:59:32.311Z,31.00
2018-08-24T16:02:04.563Z,31.00
2018-08-24T16:04:36.327Z,30.20
2018-08-24T16:07:08.985Z,30.40
2018-08-24T16:09:40.936Z,32.80
2018-08-24T16:12:13.173Z,28.40
2018-08-24T16:14:45.020Z,31.40
2018-08-24T16:17:17.231Z,30.00
2018-08-24T16:19:49.052Z,26.80
2018-08-24T16:22:21.038Z,31.00
2018-08-24T16:24:52.867Z,31.00
2018-08-24T16:27:25.797Z,26.60
2018-08-24T16:29:58.489Z,30.60
2018-08-24T16:32:30.167Z,29.00
2018-08-24T16:35:01.899Z,29.20
2018-08-24T16:37:33.696Z,28.60
2018-08-24T16:40:05.752Z,28.40
2018-08-24T16:42:37.697Z,30.40
2018-08-24T16:45:09.904Z,30.60
2018-08-24T16:47:41.819Z,31.00
2018-08-24T16:50:14.648Z,29.00
2018-08-24T16:52:46.309Z,31.00
2018-08-24T16:55:17.947Z,23.60
2018-08-24T16:57:50.688Z,25.00
2018-08-24T17:00:22.444Z,28.20
2018-08-24T17:02:54.724Z,31.20
2018-08-24T17:05:26.884Z,21.20
2018-08-24T17:07:58.553Z,24.80
2018-08-24T17:10:30.310Z,28.20
2018-08-24T17:13:03.225Z,25.00
2018-08-24T17:15:35.080Z,26.20
2018-08-24T17:18:06.996Z,19.80
2018-08-24T17:20:39.846Z,27.20
2018-08-24T17:23:12.507Z,25.20
2018-08-24T17:25:45.385Z,25.40
2018-08-24T17:28:18.647Z,28.40
2018-08-24T17:30:50.414Z,28.00
2018-08-24T17:33:22.526Z,28.00
2018-08-24T17:35:54.415Z,29.80
2018-08-24T17:38:26.095Z,31.00
2018-08-24T17:40:58.133Z,27.00
2018-08-24T17:43:29.944Z,28.00
2018-08-24T17:46:02.333Z,27.80
2018-08-24T17:48:34.502Z,26.40
2018-08-24T17:51:06.549Z,27.60
2018-08-24T17:53:40.864Z,25.80
2018-08-24T17:56:12.957Z,24.60
2018-08-24T17:58:45.080Z,26.60
2018-08-24T18:01:17.126Z,29.20
2018-08-24T18:03:49.088Z,30.60
2018-08-24T18:06:21.730Z,27.80
2018-08-24T18:08:53.805Z,26.40
2018-08-24T18:11:26.366Z,27.40
2018-08-24T18:14:00.004Z,24.20
2018-08-24T18:16:32.274Z,23.80
2018-08-24T18:19:04.528Z,23.60
2018-08-24T18:21:36.348Z,21.60
2018-08-24T18:24:08.290Z,20.80
2018-08-24T18:26:40.594Z,27.00
2018-08-24T18:29:12.449Z,28.40
2018-08-24T18:31:45.110Z,26.00
2018-08-24T18:34:18.171Z,18.80
2018-08-24T18:36:52.057Z,18.80
2018-08-24T18:39:24.450Z,24.00
2018-08-24T18:41:56.497Z,22.80
2018-08-24T18:44:28.440Z,20.40
2018-08-24T18:47:02.328Z,20.80
2018-08-24T18:49:34.756Z,23.20
2018-08-24T18:52:06.508Z,17.20
2018-08-24T18:54:38.770Z,23.00
2018-08-24T18:57:10.510Z,21.40
2018-08-24T18:59:42.835Z,24.20
2018-08-24T19:02:15.357Z,23.00
2018-08-24T19:04:47.163Z,22.80
2018-08-24T19:07:19.626Z,22.00
2018-08-24T19:09:52.689Z,19.60
2018-08-24T19:12:27.593Z,19.80
2018-08-24T19:15:00.848Z,22.40
2018-08-24T19:17:38.020Z,22.00
2018-08-24T19:20:15.004Z,22.00
2018-08-24T19:22:52.637Z,20.20
2018-08-24T19:25:25.192Z,21.00
2018-08-24T19:28:03.602Z,19.40
2018-08-24T19:30:36.234Z,22.80
2018-08-24T19:33:08.304Z,22.40
2018-08-24T19:35:41.681Z,19.00
2018-08-24T19:38:13.944Z,20.40
2018-08-24T19:40:50.940Z,22.40
2018-08-24T19:43:23.910Z,20.40
2018-08-24T19:45:56.420Z,22.00
2018-08-24T19:48:37.019Z,22.00
2018-08-24T19:51:10.403Z,16.20
2018-08-24T19:53:43.402Z,24.80
2018-08-24T19:56:15.346Z,22.60
2018-08-24T19:58:52.130Z,20.40
2018-08-24T20:01:24.372Z,22.00
2018-08-24T20:03:57.911Z,19.40
2018-08-24T20:06:34.633Z,24.00
2018-08-24T20:09:16.252Z,25.00
2018-08-24T20:11:51.570Z,22.60
2018-08-24T20:14:28.652Z,26.00
2018-08-24T20:17:07.762Z,21.20
2018-08-24T20:19:39.628Z,21.00
2018-08-24T20:22:13.722Z,21.40
2018-08-24T20:24:46.513Z,21.40
2018-08-24T20:27:19.916Z,25.40
2018-08-24T20:29:52.906Z,23.80
2018-08-24T20:32:26.793Z,25.00
2018-08-24T20:34:59.324Z,27.00
2018-08-24T20:37:32.600Z,21.00
2018-08-24T20:40:05.639Z,20.60
2018-08-24T20:42:38.484Z,23.60
2018-08-24T20:45:11.433Z,23.40
2018-08-24T20:47:43.755Z,24.00
2018-08-24T20:50:15.868Z,24.80
2018-08-24T20:52:48.468Z,23.00
2018-08-24T20:55:20.529Z,22.00
2018-08-24T20:57:52.999Z,23.00
2018-08-24T21:00:25.236Z,21.20
2018-08-24T21:02:59.090Z,20.00
2018-08-24T21:05:31.234Z,23.00
2018-08-24T21:08:04.924Z,21.60
2018-08-24T21:10:36.847Z,23.80
2018-08-24T21:13:10.297Z,23.80
2018-08-24T21:15:42.799Z,24.60
2018-08-24T21:18:18.424Z,18.80
2018-08-24T21:20:52.052Z,27.40
2018-08-24T21:23:26.485Z,24.00
2018-08-24T21:25:58.498Z,23.80
2018-08-24T21:28:31.664Z,24.20
2018-08-24T21:31:05.839Z,28.20
2018-08-24T21:33:38.065Z,22.80
2018-08-24T21:36:10.615Z,25.00
2018-08-24T21:38:44.030Z,23.80
2018-08-24T21:41:16.657Z,23.60
2018-08-24T21:43:49.661Z,20.40
2018-08-24T21:46:22.759Z,21.20
2018-08-24T21:48:55.417Z,24.00
2018-08-24T21:51:28.068Z,21.00
2018-08-24T21:54:00.894Z,24.80
2018-08-24T21:56:34.021Z,24.80
2018-08-24T21:59:07.163Z,24.20
2018-08-24T22:01:39.955Z,24.40
2018-08-24T22:04:15.334Z,22.20
2018-08-24T22:06:48.494Z,23.60
2018-08-24T22:09:22.079Z,23.20
2018-08-24T22:11:54.595Z,23.20
2018-08-24T22:14:27.658Z,26.00
2018-08-24T22:17:00.468Z,21.40
2018-08-24T22:19:34.062Z,24.20
2018-08-24T22:22:08.362Z,24.20
2018-08-24T22:24:41.560Z,20.80
2018-08-24T22:27:13.613Z,22.80
2018-08-24T22:29:46.327Z,23.80
2018-08-24T22:32:18.711Z,21.00
2018-08-24T22:34:52.464Z,22.40
2018-08-24T22:37:24.929Z,22.60
2018-08-24T22:39:58.024Z,20.80
2018-08-24T22:42:30.216Z,22.00
2018-08-24T22:45:02.395Z,22.00
2018-08-24T22:47:35.295Z,21.40
2018-08-24T22:50:08.639Z,22.80
2018-08-24T22:52:41.384Z,23.80
2018-08-24T22:55:14.094Z,21.60
2018-08-24T22:57:45.803Z,20.80
2018-08-24T23:00:18.623Z,23.00
2018-08-24T23:02:51.088Z,23.40
2018-08-24T23:05:24.497Z,21.20
2018-08-24T23:07:57.253Z,24.20
2018-08-24T23:10:29.862Z,21.20
2018-08-24T23:13:03.348Z,22.80
2018-08-24T23:15:36.713Z,23.80
2018-08-24T23:18:12.366Z,26.60
2018-08-24T23:20:47.722Z,21.40
2018-08-24T23:23:20.797Z,18.20
2018-08-24T23:25:55.961Z,26.20
2018-08-24T23:28:30.971Z,20.60
2018-08-24T23:31:04.848Z,21.60
2018-08-24T23:33:38.269Z,21.00
2018-08-24T23:36:11.761Z,20.80
2018-08-24T23:38:45.352Z,22.60
2018-08-24T23:41:18.359Z,25.20
2018-08-24T23:43:50.638Z,22.20
2018-08-24T23:46:23.435Z,22.40
2018-08-24T23:48:55.667Z,20.60
2018-08-24T23:51:28.199Z,22.60
2018-08-24T23:54:01.286Z,26.40
2018-08-24T23:56:33.670Z,22.60
2018-08-24T23:59:05.961Z,21.60
